sensor_id;sensor_type;location;lat;lon;timestamp;P1;durP1;ratioP1;P2;durP2;ratioP2
74373;SDS011;62809;51.090;-115.358;2022-09-21T00:01:30;0.80;;;0.80;;
74373;SDS011;62809;51.090;-115.358;2022-09-21T00:04:01;1.40;;;0.80;;
74373;SDS011;62809;51.090;-115.358;2022-09-21T00:06:32;1.10;;;0.90;;
74373;SDS011;62809;51.090;-115.358;2022-09-21T00:09:00;1.80;;;0.90;;
74373;SDS011;62809;51.090;-115.358;2022-09-21T00:11:31;1.10;;;0.80;;
74373;SDS011;62809;51.090;-115.358;2022-09-21T00:14:04;1.00;;;0.80;;
74373;SDS011;62809;51.090;-115.358;2022-09-21T00:16:35;1.00;;;0.70;;
74373;SDS011;62809;51.090;-115.358;2022-09-21T00:19:04;1.10;;;0.80;;
74373;SDS011;62809;51.090;-115.358;2022-09-21T00:21:32;1.00;;;0.80;;
74373;SDS011;62809;51.090;-115.358;2022-09-21T00:24:00;0.80;;;0.70;;
74373;SDS011;62809;51.090;-115.358;2022-09-21T00:26:28;1.20;;;0.80;;
74373;SDS011;62809;51.090;-115.358;2022-09-21T00:28:59;0.90;;;0.80;;
74373;SDS011;62809;51.090;-115.358;2022-09-21T00:31:30;0.80;;;0.80;;
74373;SDS011;62809;51.090;-115.358;2022-09-21T00:33:59;0.70;;;0.60;;
74373;SDS011;62809;51.090;-115.358;2022-09-21T00:36:28;1.50;;;0.90;;
74373;SDS011;62809;51.090;-115.358;2022-09-21T00:38:58;1.00;;;0.70;;
74373;SDS011;62809;51.090;-115.358;2022-09-21T00:41:28;1.10;;;0.70;;
74373;SDS011;62809;51.090;-115.358;2022-09-21T00:49:56;0.90;;;0.70;;
74373;SDS011;62809;51.090;-115.358;2022-09-21T00:52:28;1.20;;;0.80;;
74373;SDS011;62809;51.090;-115.358;2022-09-21T00:57:41;0.70;;;0.70;;
74373;SDS011;62809;51.090;-115.358;2022-09-21T01:00:09;0.90;;;0.80;;
74373;SDS011;62809;51.090;-115.358;2022-09-21T01:02:39;1.20;;;0.80;;
74373;SDS011;62809;51.090;-115.358;2022-09-21T01:05:09;0.80;;;0.80;;
74373;SDS011;62809;51.090;-115.358;2022-09-21T01:07:39;1.70;;;0.80;;
74373;SDS011;62809;51.090;-115.358;2022-09-21T01:10:13;0.70;;;0.70;;
74373;SDS011;62809;51.090;-115.358;2022-09-21T01:13:10;0.80;;;0.70;;
74373;SDS011;62809;51.090;-115.358;2022-09-21T01:22:04;3.90;;;0.70;;
74373;SDS011;62809;51.090;-115.358;2022-09-21T01:25:11;1.60;;;0.70;;
74373;SDS011;62809;51.090;-115.358;2022-09-21T01:28:23;1.90;;;0.80;;
74373;SDS011;62809;51.090;-115.358;2022-09-21T01:31:19;1.80;;;1.00;;
74373;SDS011;62809;51.090;-115.358;2022-09-21T01:33:56;1.10;;;0.90;;
74373;SDS011;62809;51.090;-115.358;2022-09-21T01:36:30;1.40;;;0.90;;
74373;SDS011;62809;51.090;-115.358;2022-09-21T01:39:07;1.40;;;0.90;;
74373;SDS011;62809;51.090;-115.358;2022-09-21T01:41:40;1.80;;;0.90;;
74373;SDS011;62809;51.090;-115.358;2022-09-21T01:44:14;1.20;;;0.80;;
74373;SDS011;62809;51.090;-115.358;2022-09-21T01:46:51;0.80;;;0.80;;
74373;SDS011;62809;51.090;-115.358;2022-09-21T01:49:36;1.10;;;0.80;;
74373;SDS011;62809;51.090;-115.358;2022-09-21T01:52:23;1.70;;;0.70;;
74373;SDS011;62809;51.090;-115.358;2022-09-21T01:55:08;0.90;;;0.70;;
74373;SDS011;62809;51.090;-115.358;2022-09-21T01:57:53;1.00;;;0.80;;
74373;SDS011;62809;51.090;-115.358;2022-09-21T02:00:33;1.60;;;0.70;;
74373;SDS011;62809;51.090;-115.358;2022-09-21T02:05:38;1.30;;;0.80;;
74373;SDS011;62809;51.090;-115.358;2022-09-21T02:08:08;1.50;;;1.00;;
74373;SDS011;62809;51.090;-115.358;2022-09-21T02:10:46;1.80;;;0.80;;
74373;SDS011;62809;51.090;-115.358;2022-09-21T02:13:17;1.70;;;1.10;;
74373;SDS011;62809;51.090;-115.358;2022-09-21T02:21:30;1.50;;;1.10;;
74373;SDS011;62809;51.090;-115.358;2022-09-21T02:26:48;1.90;;;1.00;;
74373;SDS011;62809;51.090;-115.358;2022-09-21T02:29:27;1.50;;;1.00;;
74373;SDS011;62809;51.090;-115.358;2022-09-21T02:32:15;1.80;;;1.00;;
74373;SDS011;62809;51.090;-115.358;2022-09-21T02:35:12;1.40;;;0.90;;
74373;SDS011;62809;51.090;-115.358;2022-09-21T02:43:09;2.00;;;1.00;;
74373;SDS011;62809;51.090;-115.358;2022-09-21T02:45:59;2.60;;;1.00;;
74373;SDS011;62809;51.090;-115.358;2022-09-21T02:48:37;1.70;;;0.90;;
74373;SDS011;62809;51.090;-115.358;2022-09-21T02:51:16;2.30;;;1.20;;
74373;SDS011;62809;51.090;-115.358;2022-09-21T02:53:50;1.90;;;1.00;;
74373;SDS011;62809;51.090;-115.358;2022-09-21T02:56:19;2.60;;;1.20;;
74373;SDS011;62809;51.090;-115.358;2022-09-21T02:58:53;2.10;;;1.20;;
74373;SDS011;62809;51.090;-115.358;2022-09-21T03:01:24;2.40;;;1.10;;
74373;SDS011;62809;51.090;-115.358;2022-09-21T03:03:54;1.60;;;1.00;;
74373;SDS011;62809;51.090;-115.358;2022-09-21T03:06:22;1.40;;;0.90;;
74373;SDS011;62809;51.090;-115.358;2022-09-21T03:08:49;2.10;;;1.10;;
74373;SDS011;62809;51.090;-115.358;2022-09-21T03:11:20;1.80;;;1.20;;
74373;SDS011;62809;51.090;-115.358;2022-09-21T03:13:48;2.40;;;1.10;;
74373;SDS011;62809;51.090;-115.358;2022-09-21T03:16:16;2.30;;;1.10;;
74373;SDS011;62809;51.090;-115.358;2022-09-21T03:18:45;1.40;;;0.90;;
74373;SDS011;62809;51.090;-115.358;2022-09-21T03:21:13;1.50;;;0.90;;
74373;SDS011;62809;51.090;-115.358;2022-09-21T03:23:41;1.10;;;0.80;;
74373;SDS011;62809;51.090;-115.358;2022-09-21T03:26:09;1.70;;;0.90;;
74373;SDS011;62809;51.090;-115.358;2022-09-21T03:28:37;1.80;;;1.10;;
74373;SDS011;62809;51.090;-115.358;2022-09-21T03:31:06;1.40;;;0.90;;
74373;SDS011;62809;51.090;-115.358;2022-09-21T03:33:33;1.60;;;0.90;;
74373;SDS011;62809;51.090;-115.358;2022-09-21T03:36:00;1.00;;;0.70;;
74373;SDS011;62809;51.090;-115.358;2022-09-21T03:38:27;1.40;;;1.00;;
74373;SDS011;62809;51.090;-115.358;2022-09-21T03:40:56;2.00;;;0.90;;
74373;SDS011;62809;51.090;-115.358;2022-09-21T03:43:25;2.20;;;1.00;;
74373;SDS011;62809;51.090;-115.358;2022-09-21T03:45:53;1.50;;;0.90;;
74373;SDS011;62809;51.090;-115.358;2022-09-21T03:48:21;1.30;;;0.90;;
74373;SDS011;62809;51.090;-115.358;2022-09-21T03:50:50;2.10;;;0.90;;
74373;SDS011;62809;51.090;-115.358;2022-09-21T03:53:22;1.50;;;0.90;;
74373;SDS011;62809;51.090;-115.358;2022-09-21T03:55:49;1.20;;;0.90;;
74373;SDS011;62809;51.090;-115.358;2022-09-21T03:58:16;1.10;;;0.70;;
74373;SDS011;62809;51.090;-115.358;2022-09-21T04:00:48;1.70;;;0.90;;
74373;SDS011;62809;51.090;-115.358;2022-09-21T04:03:15;1.20;;;0.80;;
74373;SDS011;62809;51.090;-115.358;2022-09-21T04:05:42;1.20;;;0.80;;
74373;SDS011;62809;51.090;-115.358;2022-09-21T04:08:10;1.60;;;1.10;;
74373;SDS011;62809;51.090;-115.358;2022-09-21T04:10:38;1.40;;;1.00;;
74373;SDS011;62809;51.090;-115.358;2022-09-21T04:13:08;1.60;;;1.00;;
74373;SDS011;62809;51.090;-115.358;2022-09-21T04:15:38;2.20;;;0.90;;
74373;SDS011;62809;51.090;-115.358;2022-09-21T04:18:05;1.40;;;0.90;;
74373;SDS011;62809;51.090;-115.358;2022-09-21T04:20:37;1.70;;;0.80;;
74373;SDS011;62809;51.090;-115.358;2022-09-21T04:23:05;1.60;;;0.90;;
74373;SDS011;62809;51.090;-115.358;2022-09-21T04:25:33;1.50;;;0.90;;
74373;SDS011;62809;51.090;-115.358;2022-09-21T04:28:01;1.80;;;1.00;;
74373;SDS011;62809;51.090;-115.358;2022-09-21T04:30:29;1.50;;;0.90;;
74373;SDS011;62809;51.090;-115.358;2022-09-21T04:32:56;1.90;;;0.90;;
74373;SDS011;62809;51.090;-115.358;2022-09-21T04:35:27;1.60;;;1.00;;
74373;SDS011;62809;51.090;-115.358;2022-09-21T04:37:56;1.30;;;0.80;;
74373;SDS011;62809;51.090;-115.358;2022-09-21T04:40:24;2.20;;;0.90;;
74373;SDS011;62809;51.090;-115.358;2022-09-21T04:42:53;1.40;;;0.80;;
74373;SDS011;62809;51.090;-115.358;2022-09-21T04:45:21;1.80;;;1.00;;
74373;SDS011;62809;51.090;-115.358;2022-09-21T04:47:49;1.50;;;0.90;;
74373;SDS011;62809;51.090;-115.358;2022-09-21T04:50:19;2.20;;;1.00;;
74373;SDS011;62809;51.090;-115.358;2022-09-21T04:52:46;1.90;;;1.00;;
74373;SDS011;62809;51.090;-115.358;2022-09-21T04:55:14;2.00;;;1.10;;
74373;SDS011;62809;51.090;-115.358;2022-09-21T04:57:44;1.10;;;0.80;;
74373;SDS011;62809;51.090;-115.358;2022-09-21T05:00:11;1.50;;;0.90;;
74373;SDS011;62809;51.090;-115.358;2022-09-21T05:02:38;1.70;;;0.90;;
74373;SDS011;62809;51.090;-115.358;2022-09-21T05:05:08;1.90;;;1.00;;
74373;SDS011;62809;51.090;-115.358;2022-09-21T05:07:35;1.90;;;1.00;;
74373;SDS011;62809;51.090;-115.358;2022-09-21T05:10:03;2.40;;;1.00;;
74373;SDS011;62809;51.090;-115.358;2022-09-21T05:12:33;2.10;;;1.10;;
74373;SDS011;62809;51.090;-115.358;2022-09-21T05:15:01;2.60;;;1.10;;
74373;SDS011;62809;51.090;-115.358;2022-09-21T05:17:30;1.90;;;0.90;;
74373;SDS011;62809;51.090;-115.358;2022-09-21T05:19:58;2.00;;;1.00;;
74373;SDS011;62809;51.090;-115.358;2022-09-21T05:22:28;2.40;;;1.00;;
74373;SDS011;62809;51.090;-115.358;2022-09-21T05:24:59;1.80;;;0.90;;
74373;SDS011;62809;51.090;-115.358;2022-09-21T05:27:28;1.80;;;0.90;;
74373;SDS011;62809;51.090;-115.358;2022-09-21T05:29:57;1.90;;;1.00;;
74373;SDS011;62809;51.090;-115.358;2022-09-21T05:35:24;1.40;;;0.90;;
74373;SDS011;62809;51.090;-115.358;2022-09-21T05:40:47;1.40;;;0.80;;
74373;SDS011;62809;51.090;-115.358;2022-09-21T05:43:17;1.80;;;0.90;;
74373;SDS011;62809;51.090;-115.358;2022-09-21T05:45:47;1.80;;;0.70;;
74373;SDS011;62809;51.090;-115.358;2022-09-21T05:48:27;1.80;;;0.90;;
74373;SDS011;62809;51.090;-115.358;2022-09-21T05:54:15;1.70;;;1.00;;
74373;SDS011;62809;51.090;-115.358;2022-09-21T06:05:23;1.50;;;0.70;;
74373;SDS011;62809;51.090;-115.358;2022-09-21T06:07:50;1.40;;;0.80;;
74373;SDS011;62809;51.090;-115.358;2022-09-21T06:10:18;1.40;;;0.70;;
74373;SDS011;62809;51.090;-115.358;2022-09-21T06:12:45;0.90;;;0.70;;
74373;SDS011;62809;51.090;-115.358;2022-09-21T06:15:15;1.50;;;0.80;;
74373;SDS011;62809;51.090;-115.358;2022-09-21T06:17:43;1.50;;;0.80;;
74373;SDS011;62809;51.090;-115.358;2022-09-21T06:20:11;1.50;;;0.80;;
74373;SDS011;62809;51.090;-115.358;2022-09-21T06:22:45;1.40;;;0.80;;
74373;SDS011;62809;51.090;-115.358;2022-09-21T06:25:15;2.00;;;0.90;;
74373;SDS011;62809;51.090;-115.358;2022-09-21T06:27:44;1.30;;;0.80;;
74373;SDS011;62809;51.090;-115.358;2022-09-21T06:30:13;1.30;;;0.80;;
74373;SDS011;62809;51.090;-115.358;2022-09-21T06:32:42;1.60;;;0.80;;
74373;SDS011;62809;51.090;-115.358;2022-09-21T06:35:11;1.70;;;0.90;;
74373;SDS011;62809;51.090;-115.358;2022-09-21T06:37:39;1.50;;;0.80;;
74373;SDS011;62809;51.090;-115.358;2022-09-21T06:40:09;1.30;;;0.70;;
74373;SDS011;62809;51.090;-115.358;2022-09-21T06:42:37;1.80;;;0.80;;
74373;SDS011;62809;51.090;-115.358;2022-09-21T06:45:05;1.40;;;0.80;;
74373;SDS011;62809;51.090;-115.358;2022-09-21T06:47:36;1.70;;;0.90;;
74373;SDS011;62809;51.090;-115.358;2022-09-21T06:50:05;1.80;;;0.80;;
74373;SDS011;62809;51.090;-115.358;2022-09-21T06:52:33;1.60;;;0.80;;
74373;SDS011;62809;51.090;-115.358;2022-09-21T06:55:03;1.50;;;0.80;;
74373;SDS011;62809;51.090;-115.358;2022-09-21T06:57:35;1.90;;;0.80;;
74373;SDS011;62809;51.090;-115.358;2022-09-21T07:00:07;1.30;;;0.80;;
74373;SDS011;62809;51.090;-115.358;2022-09-21T07:02:38;1.20;;;0.80;;
74373;SDS011;62809;51.090;-115.358;2022-09-21T07:05:11;1.80;;;0.80;;
74373;SDS011;62809;51.090;-115.358;2022-09-21T07:07:41;1.60;;;0.80;;
74373;SDS011;62809;51.090;-115.358;2022-09-21T07:10:09;1.60;;;0.80;;
74373;SDS011;62809;51.090;-115.358;2022-09-21T07:12:39;1.20;;;0.80;;
74373;SDS011;62809;51.090;-115.358;2022-09-21T07:15:07;1.60;;;0.80;;
74373;SDS011;62809;51.090;-115.358;2022-09-21T07:17:37;1.10;;;0.70;;
74373;SDS011;62809;51.090;-115.358;2022-09-21T07:20:08;1.50;;;0.80;;
74373;SDS011;62809;51.090;-115.358;2022-09-21T07:22:35;1.20;;;0.80;;
74373;SDS011;62809;51.090;-115.358;2022-09-21T07:25:05;0.80;;;0.70;;
74373;SDS011;62809;51.090;-115.358;2022-09-21T07:27:33;1.70;;;0.80;;
74373;SDS011;62809;51.090;-115.358;2022-09-21T07:30:00;1.30;;;0.70;;
74373;SDS011;62809;51.090;-115.358;2022-09-21T07:32:28;1.20;;;0.80;;
74373;SDS011;62809;51.090;-115.358;2022-09-21T07:34:56;1.20;;;0.70;;
74373;SDS011;62809;51.090;-115.358;2022-09-21T07:37:27;1.10;;;0.60;;
74373;SDS011;62809;51.090;-115.358;2022-09-21T07:39:56;1.40;;;0.80;;
74373;SDS011;62809;51.090;-115.358;2022-09-21T07:42:24;0.80;;;0.60;;
74373;SDS011;62809;51.090;-115.358;2022-09-21T07:44:52;1.20;;;0.70;;
74373;SDS011;62809;51.090;-115.358;2022-09-21T07:47:20;1.10;;;0.70;;
74373;SDS011;62809;51.090;-115.358;2022-09-21T07:49:53;1.60;;;0.80;;
74373;SDS011;62809;51.090;-115.358;2022-09-21T07:52:22;0.90;;;0.60;;
74373;SDS011;62809;51.090;-115.358;2022-09-21T07:54:49;1.60;;;0.80;;
74373;SDS011;62809;51.090;-115.358;2022-09-21T07:57:16;0.80;;;0.60;;
74373;SDS011;62809;51.090;-115.358;2022-09-21T08:00:03;1.20;;;0.80;;
74373;SDS011;62809;51.090;-115.358;2022-09-21T08:02:31;1.30;;;0.60;;
74373;SDS011;62809;51.090;-115.358;2022-09-21T08:05:01;1.20;;;0.70;;
74373;SDS011;62809;51.090;-115.358;2022-09-21T08:07:29;1.00;;;0.60;;
74373;SDS011;62809;51.090;-115.358;2022-09-21T08:09:56;1.30;;;0.70;;
74373;SDS011;62809;51.090;-115.358;2022-09-21T08:12:25;0.90;;;0.60;;
74373;SDS011;62809;51.090;-115.358;2022-09-21T08:14:53;1.00;;;0.60;;
74373;SDS011;62809;51.090;-115.358;2022-09-21T08:17:20;1.00;;;0.60;;
74373;SDS011;62809;51.090;-115.358;2022-09-21T08:19:49;1.50;;;0.70;;
74373;SDS011;62809;51.090;-115.358;2022-09-21T08:22:19;0.70;;;0.60;;
74373;SDS011;62809;51.090;-115.358;2022-09-21T08:24:50;0.60;;;0.60;;
74373;SDS011;62809;51.090;-115.358;2022-09-21T08:27:18;0.90;;;0.70;;
74373;SDS011;62809;51.090;-115.358;2022-09-21T08:29:49;1.20;;;0.70;;
74373;SDS011;62809;51.090;-115.358;2022-09-21T08:32:19;1.20;;;0.70;;
74373;SDS011;62809;51.090;-115.358;2022-09-21T08:34:46;1.30;;;0.70;;
74373;SDS011;62809;51.090;-115.358;2022-09-21T08:37:16;0.90;;;0.60;;
74373;SDS011;62809;51.090;-115.358;2022-09-21T08:39:44;1.00;;;0.60;;
74373;SDS011;62809;51.090;-115.358;2022-09-21T08:42:37;1.00;;;0.50;;
74373;SDS011;62809;51.090;-115.358;2022-09-21T08:45:15;0.70;;;0.60;;
74373;SDS011;62809;51.090;-115.358;2022-09-21T08:50:34;1.00;;;0.70;;
74373;SDS011;62809;51.090;-115.358;2022-09-21T08:53:19;0.80;;;0.60;;
74373;SDS011;62809;51.090;-115.358;2022-09-21T08:56:02;1.40;;;0.60;;
74373;SDS011;62809;51.090;-115.358;2022-09-21T08:58:31;1.20;;;0.50;;
74373;SDS011;62809;51.090;-115.358;2022-09-21T09:04:08;1.30;;;0.70;;
74373;SDS011;62809;51.090;-115.358;2022-09-21T09:10:01;0.70;;;0.60;;
74373;SDS011;62809;51.090;-115.358;2022-09-21T09:12:44;0.90;;;0.60;;
74373;SDS011;62809;51.090;-115.358;2022-09-21T09:20:57;1.00;;;0.60;;
74373;SDS011;62809;51.090;-115.358;2022-09-21T09:23:44;0.70;;;0.50;;
74373;SDS011;62809;51.090;-115.358;2022-09-21T09:26:19;1.50;;;0.80;;
74373;SDS011;62809;51.090;-115.358;2022-09-21T09:31:39;0.80;;;0.60;;
74373;SDS011;62809;51.090;-115.358;2022-09-21T09:37:10;0.90;;;0.50;;
74373;SDS011;62809;51.090;-115.358;2022-09-21T09:39:41;1.20;;;0.60;;
74373;SDS011;62809;51.090;-115.358;2022-09-21T09:44:58;1.20;;;0.60;;
74373;SDS011;62809;51.090;-115.358;2022-09-21T09:48:07;0.80;;;0.50;;
74373;SDS011;62809;51.090;-115.358;2022-09-21T09:50:44;0.60;;;0.50;;
74373;SDS011;62809;51.090;-115.358;2022-09-21T09:53:16;1.10;;;0.60;;
74373;SDS011;62809;51.090;-115.358;2022-09-21T09:55:52;0.80;;;0.60;;
74373;SDS011;62809;51.090;-115.358;2022-09-21T09:58:55;0.80;;;0.50;;
74373;SDS011;62809;51.090;-115.358;2022-09-21T10:01:45;0.80;;;0.60;;
74373;SDS011;62809;51.090;-115.358;2022-09-21T10:04:24;1.00;;;0.60;;
74373;SDS011;62809;51.090;-115.358;2022-09-21T10:06:51;0.80;;;0.60;;
74373;SDS011;62809;51.090;-115.358;2022-09-21T10:09:28;0.60;;;0.40;;
74373;SDS011;62809;51.090;-115.358;2022-09-21T10:12:12;0.80;;;0.60;;
74373;SDS011;62809;51.090;-115.358;2022-09-21T10:14:50;0.70;;;0.50;;
74373;SDS011;62809;51.090;-115.358;2022-09-21T10:17:19;0.80;;;0.50;;
74373;SDS011;62809;51.090;-115.358;2022-09-21T10:19:58;0.80;;;0.60;;
74373;SDS011;62809;51.090;-115.358;2022-09-21T10:22:27;0.70;;;0.50;;
74373;SDS011;62809;51.090;-115.358;2022-09-21T10:24:58;0.70;;;0.50;;
74373;SDS011;62809;51.090;-115.358;2022-09-21T10:27:39;0.80;;;0.60;;
74373;SDS011;62809;51.090;-115.358;2022-09-21T10:32:57;0.70;;;0.60;;
74373;SDS011;62809;51.090;-115.358;2022-09-21T10:35:25;1.10;;;0.60;;
74373;SDS011;62809;51.090;-115.358;2022-09-21T10:38:17;0.70;;;0.50;;
74373;SDS011;62809;51.090;-115.358;2022-09-21T10:40:56;0.70;;;0.50;;
74373;SDS011;62809;51.090;-115.358;2022-09-21T10:43:24;0.60;;;0.50;;
74373;SDS011;62809;51.090;-115.358;2022-09-21T10:46:03;0.90;;;0.60;;
74373;SDS011;62809;51.090;-115.358;2022-09-21T10:48:31;0.50;;;0.50;;
74373;SDS011;62809;51.090;-115.358;2022-09-21T10:51:02;0.60;;;0.50;;
74373;SDS011;62809;51.090;-115.358;2022-09-21T10:53:35;0.80;;;0.60;;
74373;SDS011;62809;51.090;-115.358;2022-09-21T10:59:21;0.60;;;0.50;;
74373;SDS011;62809;51.090;-115.358;2022-09-21T11:01:56;0.50;;;0.40;;
74373;SDS011;62809;51.090;-115.358;2022-09-21T11:04:44;0.70;;;0.40;;
74373;SDS011;62809;51.090;-115.358;2022-09-21T11:07:28;0.90;;;0.50;;
74373;SDS011;62809;51.090;-115.358;2022-09-21T11:16:02;0.90;;;0.60;;
74373;SDS011;62809;51.090;-115.358;2022-09-21T11:21:50;1.10;;;0.50;;
74373;SDS011;62809;51.090;-115.358;2022-09-21T11:24:39;0.90;;;0.50;;
74373;SDS011;62809;51.090;-115.358;2022-09-21T11:27:20;0.60;;;0.50;;
74373;SDS011;62809;51.090;-115.358;2022-09-21T11:30:04;1.10;;;0.50;;
74373;SDS011;62809;51.090;-115.358;2022-09-21T11:38:54;0.50;;;0.50;;
74373;SDS011;62809;51.090;-115.358;2022-09-21T11:44:47;0.60;;;0.50;;
74373;SDS011;62809;51.090;-115.358;2022-09-21T11:50:39;0.50;;;0.40;;
74373;SDS011;62809;51.090;-115.358;2022-09-21T12:05:52;0.50;;;0.40;;
74373;SDS011;62809;51.090;-115.358;2022-09-21T12:14:35;0.90;;;0.50;;
74373;SDS011;62809;51.090;-115.358;2022-09-21T12:17:49;0.90;;;0.50;;
74373;SDS011;62809;51.090;-115.358;2022-09-21T12:20:46;0.60;;;0.40;;
74373;SDS011;62809;51.090;-115.358;2022-09-21T12:23:44;0.80;;;0.50;;
74373;SDS011;62809;51.090;-115.358;2022-09-21T12:26:24;0.50;;;0.50;;
74373;SDS011;62809;51.090;-115.358;2022-09-21T12:29:03;0.40;;;0.40;;
74373;SDS011;62809;51.090;-115.358;2022-09-21T12:34:44;0.40;;;0.40;;
74373;SDS011;62809;51.090;-115.358;2022-09-21T12:37:25;0.90;;;0.50;;
74373;SDS011;62809;51.090;-115.358;2022-09-21T12:43:27;0.70;;;0.50;;
74373;SDS011;62809;51.090;-115.358;2022-09-21T12:48:41;0.90;;;0.50;;
74373;SDS011;62809;51.090;-115.358;2022-09-21T12:54:13;0.50;;;0.40;;
74373;SDS011;62809;51.090;-115.358;2022-09-21T12:56:59;0.90;;;0.50;;
74373;SDS011;62809;51.090;-115.358;2022-09-21T13:08:37;0.70;;;0.50;;
74373;SDS011;62809;51.090;-115.358;2022-09-21T13:11:12;0.80;;;0.40;;
74373;SDS011;62809;51.090;-115.358;2022-09-21T13:13:51;1.00;;;0.60;;
74373;SDS011;62809;51.090;-115.358;2022-09-21T13:16:31;0.90;;;0.40;;
74373;SDS011;62809;51.090;-115.358;2022-09-21T13:21:39;0.70;;;0.50;;
74373;SDS011;62809;51.090;-115.358;2022-09-21T13:24:26;0.40;;;0.40;;
74373;SDS011;62809;51.090;-115.358;2022-09-21T13:26:57;0.60;;;0.50;;
74373;SDS011;62809;51.090;-115.358;2022-09-21T13:29:32;1.10;;;0.50;;
74373;SDS011;62809;51.090;-115.358;2022-09-21T13:34:43;0.50;;;0.40;;
74373;SDS011;62809;51.090;-115.358;2022-09-21T13:47:52;0.70;;;0.40;;
74373;SDS011;62809;51.090;-115.358;2022-09-21T13:53:24;0.80;;;0.50;;
74373;SDS011;62809;51.090;-115.358;2022-09-21T13:56:15;0.70;;;0.50;;
74373;SDS011;62809;51.090;-115.358;2022-09-21T13:58:50;0.70;;;0.40;;
74373;SDS011;62809;51.090;-115.358;2022-09-21T14:01:29;0.60;;;0.50;;
74373;SDS011;62809;51.090;-115.358;2022-09-21T14:04:15;0.80;;;0.50;;
74373;SDS011;62809;51.090;-115.358;2022-09-21T14:06:56;0.60;;;0.40;;
74373;SDS011;62809;51.090;-115.358;2022-09-21T14:09:33;0.70;;;0.50;;
74373;SDS011;62809;51.090;-115.358;2022-09-21T14:12:19;0.90;;;0.50;;
74373;SDS011;62809;51.090;-115.358;2022-09-21T14:18:07;0.60;;;0.50;;
74373;SDS011;62809;51.090;-115.358;2022-09-21T14:29:20;1.80;;;0.50;;
74373;SDS011;62809;51.090;-115.358;2022-09-21T14:32:20;1.10;;;0.50;;
74373;SDS011;62809;51.090;-115.358;2022-09-21T14:35:19;1.10;;;0.50;;
74373;SDS011;62809;51.090;-115.358;2022-09-21T14:38:02;5.40;;;0.60;;
74373;SDS011;62809;51.090;-115.358;2022-09-21T14:40:38;0.90;;;0.50;;
74373;SDS011;62809;51.090;-115.358;2022-09-21T14:43:27;0.50;;;0.40;;
74373;SDS011;62809;51.090;-115.358;2022-09-21T14:46:20;0.80;;;0.40;;
74373;SDS011;62809;51.090;-115.358;2022-09-21T14:58:15;0.90;;;0.60;;
74373;SDS011;62809;51.090;-115.358;2022-09-21T15:07:09;0.40;;;0.40;;
74373;SDS011;62809;51.090;-115.358;2022-09-21T15:10:23;1.20;;;0.50;;
74373;SDS011;62809;51.090;-115.358;2022-09-21T15:19:07;1.00;;;0.50;;
74373;SDS011;62809;51.090;-115.358;2022-09-21T15:21:51;1.10;;;0.60;;
74373;SDS011;62809;51.090;-115.358;2022-09-21T15:24:49;1.10;;;0.60;;
74373;SDS011;62809;51.090;-115.358;2022-09-21T15:27:19;1.20;;;0.60;;
74373;SDS011;62809;51.090;-115.358;2022-09-21T15:29:56;1.10;;;0.50;;
74373;SDS011;62809;51.090;-115.358;2022-09-21T15:35:14;1.90;;;0.60;;
74373;SDS011;62809;51.090;-115.358;2022-09-21T15:37:51;5.50;;;0.60;;
74373;SDS011;62809;51.090;-115.358;2022-09-21T15:40:22;2.80;;;0.50;;
74373;SDS011;62809;51.090;-115.358;2022-09-21T15:45:55;1.40;;;0.50;;
74373;SDS011;62809;51.090;-115.358;2022-09-21T15:48:26;1.60;;;0.60;;
74373;SDS011;62809;51.090;-115.358;2022-09-21T15:51:20;1.70;;;0.50;;
74373;SDS011;62809;51.090;-115.358;2022-09-21T15:54:09;3.60;;;0.60;;
74373;SDS011;62809;51.090;-115.358;2022-09-21T15:56:44;1.70;;;0.60;;
74373;SDS011;62809;51.090;-115.358;2022-09-21T15:59:16;2.00;;;0.50;;
74373;SDS011;62809;51.090;-115.358;2022-09-21T16:01:52;0.80;;;0.50;;
74373;SDS011;62809;51.090;-115.358;2022-09-21T16:04:23;0.90;;;0.40;;
74373;SDS011;62809;51.090;-115.358;2022-09-21T16:07:06;1.70;;;0.60;;
74373;SDS011;62809;51.090;-115.358;2022-09-21T16:09:49;1.70;;;0.70;;
74373;SDS011;62809;51.090;-115.358;2022-09-21T16:18:04;1.20;;;0.50;;
74373;SDS011;62809;51.090;-115.358;2022-09-21T16:20:42;5.70;;;0.70;;
74373;SDS011;62809;51.090;-115.358;2022-09-21T16:23:18;4.10;;;0.60;;
74373;SDS011;62809;51.090;-115.358;2022-09-21T16:25:55;2.80;;;0.70;;
74373;SDS011;62809;51.090;-115.358;2022-09-21T16:28:27;2.50;;;0.70;;
74373;SDS011;62809;51.090;-115.358;2022-09-21T16:30:59;2.30;;;0.60;;
74373;SDS011;62809;51.090;-115.358;2022-09-21T16:38:44;2.60;;;0.50;;
74373;SDS011;62809;51.090;-115.358;2022-09-21T16:41:22;3.20;;;0.50;;
74373;SDS011;62809;51.090;-115.358;2022-09-21T16:43:59;5.80;;;0.60;;
74373;SDS011;62809;51.090;-115.358;2022-09-21T16:46:29;4.40;;;0.60;;
74373;SDS011;62809;51.090;-115.358;2022-09-21T16:48:57;2.10;;;0.60;;
74373;SDS011;62809;51.090;-115.358;2022-09-21T16:51:27;1.10;;;0.50;;
74373;SDS011;62809;51.090;-115.358;2022-09-21T16:53:56;1.50;;;0.40;;
74373;SDS011;62809;51.090;-115.358;2022-09-21T16:56:23;2.00;;;0.60;;
74373;SDS011;62809;51.090;-115.358;2022-09-21T16:58:50;1.10;;;0.50;;
74373;SDS011;62809;51.090;-115.358;2022-09-21T17:01:18;0.70;;;0.40;;
74373;SDS011;62809;51.090;-115.358;2022-09-21T17:03:48;1.30;;;0.60;;
74373;SDS011;62809;51.090;-115.358;2022-09-21T17:06:19;1.40;;;0.60;;
74373;SDS011;62809;51.090;-115.358;2022-09-21T17:08:50;1.10;;;0.50;;
74373;SDS011;62809;51.090;-115.358;2022-09-21T17:11:19;1.50;;;0.60;;
74373;SDS011;62809;51.090;-115.358;2022-09-21T17:13:50;1.80;;;0.90;;
74373;SDS011;62809;51.090;-115.358;2022-09-21T17:16:19;3.90;;;0.60;;
74373;SDS011;62809;51.090;-115.358;2022-09-21T17:18:47;1.70;;;0.60;;
74373;SDS011;62809;51.090;-115.358;2022-09-21T17:21:15;3.20;;;0.60;;
74373;SDS011;62809;51.090;-115.358;2022-09-21T17:23:44;1.70;;;0.60;;
74373;SDS011;62809;51.090;-115.358;2022-09-21T17:26:15;1.40;;;0.50;;
74373;SDS011;62809;51.090;-115.358;2022-09-21T17:28:44;2.40;;;0.60;;
74373;SDS011;62809;51.090;-115.358;2022-09-21T17:31:13;1.00;;;0.60;;
74373;SDS011;62809;51.090;-115.358;2022-09-21T17:33:43;2.40;;;0.50;;
74373;SDS011;62809;51.090;-115.358;2022-09-21T17:36:16;2.10;;;0.60;;
74373;SDS011;62809;51.090;-115.358;2022-09-21T17:38:44;2.60;;;0.50;;
74373;SDS011;62809;51.090;-115.358;2022-09-21T17:41:33;1.40;;;0.60;;
74373;SDS011;62809;51.090;-115.358;2022-09-21T17:47:18;0.80;;;0.50;;
74373;SDS011;62809;51.090;-115.358;2022-09-21T17:49:48;0.60;;;0.50;;
74373;SDS011;62809;51.090;-115.358;2022-09-21T17:52:20;4.80;;;0.60;;
74373;SDS011;62809;51.090;-115.358;2022-09-21T17:55:09;1.30;;;0.60;;
74373;SDS011;62809;51.090;-115.358;2022-09-21T18:03:30;1.30;;;0.50;;
74373;SDS011;62809;51.090;-115.358;2022-09-21T18:06:01;1.00;;;0.60;;
74373;SDS011;62809;51.090;-115.358;2022-09-21T18:08:32;0.90;;;0.60;;
74373;SDS011;62809;51.090;-115.358;2022-09-21T18:11:05;0.70;;;0.50;;
74373;SDS011;62809;51.090;-115.358;2022-09-21T18:21:31;1.40;;;0.60;;
74373;SDS011;62809;51.090;-115.358;2022-09-21T18:24:18;1.60;;;0.60;;
74373;SDS011;62809;51.090;-115.358;2022-09-21T18:26:52;0.70;;;0.50;;
74373;SDS011;62809;51.090;-115.358;2022-09-21T18:29:31;1.20;;;0.60;;
74373;SDS011;62809;51.090;-115.358;2022-09-21T18:32:24;2.00;;;0.60;;
74373;SDS011;62809;51.090;-115.358;2022-09-21T18:38:11;2.80;;;0.50;;